Time;durP1;ratioP1;P1;durP2;ratioP2;P2;SDS_P1;SDS_P2;PMS_P1;PMS_P2;Temp;Humidity;BMP_temperature;BMP_pressure;BME280_temperature;BME280_humidity;BME280_pressure;Samples;Min_cycle;Max_cycle;Signal;HPM_P1;HPM_P2
2023/06/01 00:00:46;;;;;;;0.60;0.60;;;;;14.60;96232.00;;;;4997665;28;20201;-56
2023/06/01 00:03:13;;;;;;;0.93;0.93;;;15.10;42.50;14.50;96227.00;;;;4998107;28;20201;-56
2023/06/01 00:05:42;;;;;;;1.13;1.13;;;15.10;42.90;14.60;96219.00;;;;4997727;28;20214;-56
2023/06/01 00:08:09;;;;;;;0.93;0.93;;;15.10;42.50;14.60;96218.00;;;;4997445;28;20213;-56
2023/06/01 00:10:36;;;;;;;1.27;1.27;;;15.20;42.60;14.60;96215.00;;;;4998174;28;20261;-56
2023/06/01 00:13:03;;;;;;;0.70;0.70;;;15.30;42.10;14.70;96219.00;;;;4997409;28;20197;-56
2023/06/01 00:15:30;;;;;;;0.70;0.70;;;15.30;42.00;14.50;96214.00;;;;4997342;28;20221;-56
2023/06/01 00:17:57;;;;;;;0.83;0.83;;;15.20;41.90;14.40;96221.00;;;;4997617;28;20225;-56
2023/06/01 00:20:24;;;;;;;0.80;0.80;;;15.10;42.50;14.40;96222.00;;;;4997332;28;20209;-56
2023/06/01 00:22:53;;;;;;;1.47;1.33;;;15.10;43.20;14.30;96213.00;;;;4997477;28;20198;-56
2023/06/01 00:25:20;;;;;;;1.10;1.10;;;15.00;43.40;14.20;96220.00;;;;4997737;28;20198;-56
2023/06/01 00:27:47;;;;;;;1.13;1.13;;;14.90;43.60;14.30;96215.00;;;;4997655;28;20217;-56
2023/06/01 00:30:15;;;;;;;1.53;1.43;;;15.00;44.00;14.30;96228.00;;;;4997113;28;20252;-56
2023/06/01 00:32:43;;;;;;;1.03;1.03;;;;;14.20;96214.00;;;;5012191;28;20229;-56
2023/06/01 00:35:10;;;;;;;1.20;1.20;;;;;14.20;96214.00;;;;4997011;28;20765;-56
2023/06/01 00:37:38;;;;;;;0.77;0.77;;;;;14.00;96220.00;;;;4996932;28;20225;-56
2023/06/01 00:40:07;;;;;;;0.70;0.70;;;;;14.10;96216.00;;;;4997239;28;20714;-56
2023/06/01 00:42:35;;;;;;;1.27;1.27;;;;;14.10;96220.00;;;;4997143;28;20198;-56
2023/06/01 00:45:02;;;;;;;0.70;0.70;;;;;14.10;96210.00;;;;4996889;28;20193;-56
2023/06/01 00:47:30;;;;;;;0.63;0.63;;;;;14.00;96214.00;;;;4996921;28;20210;-56
2023/06/01 00:49:57;;;;;;;0.80;0.80;;;14.70;44.10;13.80;96214.00;;;;4997043;28;20202;-56
2023/06/01 00:52:25;;;;;;;1.10;1.10;;;14.50;44.80;13.70;96215.00;;;;4996730;28;20201;-56
2023/06/01 00:54:52;;;;;;;1.63;1.53;;;14.50;45.00;13.70;96218.00;;;;4995722;28;20233;-56
2023/06/01 00:57:26;;;;;;;4.60;1.50;;;14.50;45.10;13.70;96208.00;;;;4996140;28;20704;-56
2023/06/01 00:59:54;;;;;;;1.10;1.10;;;14.40;45.00;13.70;96207.00;;;;4996303;28;20224;-56
2023/06/01 01:02:21;;;;;;;1.20;1.10;;;14.40;45.20;13.50;96211.00;;;;4996793;28;20198;-56
2023/06/01 01:04:52;;;;;;;0.87;0.87;;;14.30;45.30;13.40;96207.00;;;;4996502;28;20217;-58
2023/06/01 01:07:28;;;;;;;1.13;1.03;;;14.20;45.70;13.40;96208.00;;;;4996923;28;20217;-56
2023/06/01 01:09:59;;;;;;;1.23;1.17;;;;;13.40;96211.00;;;;4996731;28;20182;-56
2023/06/01 01:12:36;;;;;;;2.00;1.00;;;;;13.30;96209.00;;;;4996630;28;20190;-56
2023/06/01 01:15:09;;;;;;;0.90;0.90;;;;;13.20;96207.00;;;;4996319;28;20205;-56
2023/06/01 01:17:42;;;;;;;1.10;1.10;;;;;13.30;96198.00;;;;5013395;23;20288;-58
2023/06/01 01:20:15;;;;;;;0.77;0.77;;;;;13.30;96203.00;;;;5016082;28;20228;-58
2023/06/01 01:23:08;;;;;;;0.63;0.63;;;;;13.40;96201.00;;;;5015964;28;20241;-58
2023/06/01 01:26:09;;;;;;;1.00;1.00;;;;;13.40;96205.00;;;;5015870;28;20209;-58
2023/06/01 01:28:43;;;;;;;1.20;1.20;;;14.00;46.00;13.40;96198.00;;;;5011842;28;20233;-58
2023/06/01 01:31:15;;;;;;;0.83;0.83;;;14.00;46.60;13.40;96198.00;;;;5015853;28;20185;-59
2023/06/01 01:33:46;;;;;;;1.30;1.20;;;14.00;46.40;13.30;96198.00;;;;5015441;28;20633;-58
2023/06/01 01:36:14;;;;;;;0.97;0.97;;;14.00;46.20;13.30;96204.00;;;;5015734;28;20625;-59
2023/06/01 01:38:41;;;;;;;0.90;0.90;;;14.00;46.30;13.30;96205.00;;;;5015362;28;20240;-58
2023/06/01 01:41:08;;;;;;;0.87;0.87;;;14.00;46.60;13.40;96202.00;;;;5015487;28;20185;-59
2023/06/01 01:43:39;;;;;;;2.10;1.30;;;14.00;46.50;13.30;96196.00;;;;5015552;28;20201;-58
2023/06/01 01:46:25;;;;;;;1.00;1.00;;;14.00;46.50;13.30;96191.00;;;;5015745;28;20178;-59
2023/06/01 01:49:02;;;;;;;0.70;0.70;;;14.00;47.40;13.20;96189.00;;;;5015099;28;20586;-58
2023/06/01 01:51:38;;;;;;;0.83;0.83;;;13.80;46.70;13.10;96194.00;;;;5013849;28;20555;-59
2023/06/01 01:54:07;;;;;;;0.90;0.90;;;13.80;47.10;13.00;96193.00;;;;5015015;28;20182;-59
2023/06/01 01:56:37;;;;;;;1.10;1.00;;;13.70;47.20;13.10;96189.00;;;;5014983;28;20201;-59
2023/06/01 01:59:06;;;;;;;0.90;0.90;;;13.80;47.90;13.00;96200.00;;;;5014905;28;20220;-59
2023/06/01 02:01:34;;;;;;;1.63;1.53;;;13.70;47.60;12.90;96202.00;;;;5015205;28;20200;-59
2023/06/01 02:04:02;;;;;;;1.17;1.17;;;;;12.90;96184.00;;;;5015146;28;20190;-59
2023/06/01 02:06:30;;;;;;;0.83;0.83;;;;;13.00;96190.00;;;;5014366;28;20204;-59
2023/06/01 02:08:57;;;;;;;0.83;0.83;;;;;12.90;96185.00;;;;5015007;28;20225;-59
2023/06/01 02:11:26;;;;;;;2.30;1.47;;;;;12.90;96174.00;;;;5014677;28;20251;-58
2023/06/01 02:13:53;;;;;;;1.10;1.10;;;;;12.70;96182.00;;;;5014533;28;20724;-58
2023/06/01 02:16:22;;;;;;;0.70;0.70;;;;;12.60;96174.00;;;;5014638;28;20244;-58
2023/06/01 02:18:50;;;;;;;0.80;0.80;;;;;12.60;96178.00;;;;5014506;28;20252;-58
2023/06/01 02:21:17;;;;;;;0.90;0.90;;;;;12.60;96180.00;;;;5014814;28;20232;-58
2023/06/01 02:23:45;;;;;;;1.20;1.17;;;;;12.50;96169.00;;;;5014491;28;20201;-58
2023/06/01 02:26:12;;;;;;;2.73;1.07;;;;;12.40;96180.00;;;;5014381;28;20186;-57
2023/06/01 02:28:40;;;;;;;1.00;1.00;;;;;12.30;96172.00;;;;5015159;28;20225;-58
2023/06/01 02:31:07;;;;;;;1.30;1.30;;;13.10;48.90;12.30;96171.00;;;;5015289;28;20281;-58
2023/06/01 02:33:37;;;;;;;2.77;1.30;;;13.00;49.50;12.30;96171.00;;;;5015006;28;20190;-58
2023/06/01 02:36:05;;;;;;;1.07;1.07;;;13.00;49.60;12.30;96173.00;;;;5015140;28;20225;-58
2023/06/01 02:38:32;;;;;;;1.10;1.10;;;13.00;50.00;12.30;96172.00;;;;5014267;28;20221;-58
2023/06/01 02:40:59;;;;;;;1.23;1.13;;;13.00;49.70;12.20;96174.00;;;;5014265;28;20648;-58
2023/06/01 02:43:26;;;;;;;1.23;1.23;;;13.00;49.90;12.20;96172.00;;;;5012973;28;20197;-58
2023/06/01 02:45:53;;;;;;;1.03;1.03;;;12.90;49.80;12.20;96166.00;;;;5014195;28;20200;-58
2023/06/01 02:48:20;;;;;;;0.73;0.73;;;12.90;49.90;12.20;96167.00;;;;5014074;28;20205;-58
2023/06/01 02:50:48;;;;;;;3.20;1.03;;;12.90;50.00;12.20;96165.00;;;;5014405;28;20189;-58
2023/06/01 02:53:15;;;;;;;1.23;1.23;;;12.90;49.90;12.20;96166.00;;;;5014037;28;20212;-58
2023/06/01 02:55:42;;;;;;;1.00;1.00;;;12.90;49.60;12.20;96168.00;;;;5014222;28;20229;-59
2023/06/01 02:58:15;;;;;;;0.93;0.93;;;12.90;49.80;12.10;96171.00;;;;5014179;28;20233;-58
2023/06/01 03:00:43;;;;;;;0.90;0.90;;;12.80;49.70;12.00;96168.00;;;;5014219;28;20181;-58
2023/06/01 03:03:10;;;;;;;0.87;0.87;;;12.70;50.00;11.80;96167.00;;;;5014184;28;20201;-58
2023/06/01 03:05:37;;;;;;;1.27;1.27;;;12.50;50.50;11.70;96171.00;;;;5013850;28;20202;-61
2023/06/01 03:08:07;;;;;;;1.30;1.30;;;12.40;50.90;11.70;96173.00;;;;5013755;28;20224;-59
2023/06/01 03:10:34;;;;;;;1.40;1.37;;;12.50;50.90;11.70;96165.00;;;;5013783;28;20198;-58
2023/06/01 03:13:01;;;;;;;1.77;1.67;;;12.50;50.90;11.80;96163.00;;;;5013712;28;20189;-58
2023/06/01 03:15:28;;;;;;;1.70;1.60;;;12.50;50.80;11.90;96164.00;;;;5013617;28;20213;-59
2023/06/01 03:17:55;;;;;;;0.80;0.80;;;12.50;51.10;11.70;96157.00;;;;5013023;28;20213;-59
2023/06/01 03:20:22;;;;;;;0.73;0.73;;;12.50;50.80;11.80;96155.00;;;;5013764;28;20182;-59
2023/06/01 03:22:49;;;;;;;0.90;0.90;;;12.40;51.20;11.70;96152.00;;;;5012407;28;20692;-59
2023/06/01 03:25:18;;;;;;;1.00;0.97;;;12.40;51.50;11.70;96154.00;;;;5013813;28;20197;-59
2023/06/01 03:27:45;;;;;;;2.93;1.53;;;12.40;51.40;11.70;96161.00;;;;5012183;28;20213;-59
2023/06/01 03:30:13;;;;;;;1.43;1.40;;;12.40;51.20;11.60;96162.00;;;;5012294;28;20743;-59
2023/06/01 03:32:42;;;;;;;4.57;1.50;;;12.30;51.30;11.70;96164.00;;;;5014341;28;20197;-59
2023/06/01 03:35:11;;;;;;;0.70;0.70;;;12.30;51.10;11.80;96162.00;;;;5013474;28;20332;-59
2023/06/01 03:37:39;;;;;;;0.90;0.90;;;12.40;51.60;11.80;96162.00;;;;5014011;28;20214;-59
2023/06/01 03:40:11;;;;;;;1.40;1.40;;;12.40;51.20;11.70;96163.00;;;;5012194;28;20277;-59
2023/06/01 03:42:41;;;;;;;3.20;1.30;;;12.40;51.10;11.70;96169.00;;;;5013955;28;20170;-59
2023/06/01 03:45:09;;;;;;;1.13;1.13;;;12.40;51.30;11.70;96172.00;;;;5014290;28;20200;-60
2023/06/01 03:47:37;;;;;;;0.77;0.77;;;12.40;51.30;11.70;96164.00;;;;5013376;28;20213;-59
2023/06/01 03:50:06;;;;;;;0.83;0.83;;;12.30;51.30;11.60;96164.00;;;;5013405;28;20236;-59
2023/06/01 03:52:34;;;;;;;1.60;1.50;;;12.30;51.30;11.60;96173.00;;;;5013456;28;20204;-59
2023/06/01 03:55:04;;;;;;;1.20;1.10;;;12.30;51.50;11.60;96166.00;;;;5012035;28;20703;-59
2023/06/01 03:57:31;;;;;;;0.90;0.90;;;12.30;51.70;11.60;96167.00;;;;5013614;28;20629;-59
2023/06/01 04:00:00;;;;;;;1.10;1.10;;;12.30;51.90;11.60;96172.00;;;;5013525;28;20201;-59
2023/06/01 04:02:28;;;;;;;1.50;1.40;;;12.30;51.60;11.60;96177.00;;;;5013231;28;20669;-59
2023/06/01 04:04:55;;;;;;;1.00;0.97;;;12.30;51.70;11.80;96178.00;;;;5011935;28;20197;-60
2023/06/01 04:07:23;;;;;;;0.57;0.57;;;12.40;51.50;11.80;96174.00;;;;5013514;28;20524;-59
2023/06/01 04:09:50;;;;;;;1.23;1.23;;;12.50;51.10;11.80;96182.00;;;;5013231;28;20190;-60
2023/06/01 04:12:17;;;;;;;1.10;1.10;;;12.50;51.30;11.80;96179.00;;;;5013442;28;20185;-59
2023/06/01 04:14:44;;;;;;;1.37;1.20;;;12.50;51.00;11.90;96178.00;;;;5013066;28;20294;-59
2023/06/01 04:17:12;;;;;;;1.40;1.30;;;12.60;50.80;11.90;96174.00;;;;5013598;28;20190;-60
2023/06/01 04:19:40;;;;;;;0.70;0.70;;;12.60;50.80;11.90;96178.00;;;;5013119;28;20197;-59
2023/06/01 04:22:07;;;;;;;0.80;0.80;;;12.60;50.80;12.00;96175.00;;;;5013338;28;20556;-59
2023/06/01 04:24:34;;;;;;;1.63;1.53;;;12.50;50.90;12.00;96179.00;;;;5013066;28;20649;-59
2023/06/01 04:27:02;;;;;;;0.60;0.60;;;12.60;50.70;11.80;96186.00;;;;5013074;28;20186;-59
2023/06/01 04:29:29;;;;;;;0.60;0.60;;;12.50;51.00;11.90;96193.00;;;;5013500;28;20190;-59
2023/06/01 04:31:56;;;;;;;0.73;0.73;;;12.50;51.20;12.00;96182.00;;;;5016959;28;20189;-59
2023/06/01 04:34:25;;;;;;;0.83;0.83;;;12.50;50.70;11.90;96197.00;;;;5016638;28;20193;-59
2023/06/01 04:36:52;;;;;;;1.13;1.13;;;12.50;50.60;11.90;96195.00;;;;5016542;28;20213;-59
2023/06/01 04:39:19;;;;;;;1.17;1.17;;;12.40;50.70;11.90;96194.00;;;;5015200;28;20224;-59
2023/06/01 04:41:46;;;;;;;1.30;1.27;;;12.50;51.20;11.90;96194.00;;;;5016790;28;20671;-59
2023/06/01 04:44:15;;;;;;;0.90;0.90;;;12.40;50.90;12.00;96190.00;;;;5016476;28;20193;-59
2023/06/01 04:46:42;;;;;;;0.83;0.83;;;12.60;50.80;12.00;96196.00;;;;5016450;28;20642;-59
2023/06/01 04:49:11;;;;;;;1.10;1.10;;;12.60;50.90;12.10;96192.00;;;;5016324;28;20216;-59
2023/06/01 04:51:40;;;;;;;8.33;1.80;;;12.70;50.60;12.20;96187.00;;;;5016611;28;20269;-59
2023/06/01 04:54:09;;;;;;;0.90;0.90;;;12.80;50.40;12.20;96192.00;;;;5015030;28;20653;-59
2023/06/01 04:56:36;;;;;;;1.47;1.37;;;12.80;50.50;12.20;96191.00;;;;5016130;28;20252;-59
2023/06/01 04:59:05;;;;;;;0.80;0.80;;;12.80;50.60;12.30;96197.00;;;;5016418;28;20219;-60
2023/06/01 05:01:32;;;;;;;1.23;1.13;;;12.80;50.40;12.30;96192.00;;;;5014743;28;20730;-58
2023/06/01 05:04:00;;;;;;;1.00;1.00;;;12.90;50.40;12.50;96194.00;;;;5016329;28;20193;-60
2023/06/01 05:06:27;;;;;;;1.87;1.77;;;13.00;50.20;12.60;96189.00;;;;5016183;28;20653;-59
2023/06/01 05:08:56;;;;;;;1.57;1.47;;;13.10;50.30;12.50;96202.00;;;;5016093;28;20209;-58
2023/06/01 05:11:23;;;;;;;0.67;0.67;;;13.10;49.50;12.60;96203.00;;;;5016110;28;20193;-59
2023/06/01 05:13:51;;;;;;;1.10;1.10;;;13.20;49.70;12.70;96199.00;;;;5016198;28;20562;-59
2023/06/01 05:16:18;;;;;;;0.90;0.90;;;13.30;49.60;12.80;96203.00;;;;5015871;28;20241;-59
2023/06/01 05:18:45;;;;;;;0.80;0.80;;;13.40;49.30;12.90;96204.00;;;;5014356;28;20228;-59
2023/06/01 05:21:12;;;;;;;1.27;1.17;;;13.40;49.20;12.90;96199.00;;;;5015806;28;20186;-59
2023/06/01 05:23:39;;;;;;;1.30;1.03;;;13.50;49.20;13.00;96200.00;;;;5015808;28;20261;-59
2023/06/01 05:26:07;;;;;;;0.67;0.67;;;13.50;49.20;13.10;96198.00;;;;5015926;28;20244;-60
2023/06/01 05:28:36;;;;;;;1.60;1.50;;;13.70;49.60;13.20;96196.00;;;;5014320;28;20225;-60
2023/06/01 05:31:03;;;;;;;0.90;0.90;;;13.80;48.60;13.30;96196.00;;;;5015416;28;20676;-58
2023/06/01 05:33:30;;;;;;;0.80;0.80;;;13.80;48.40;13.30;96186.00;;;;5011484;28;20197;-59
2023/06/01 05:35:58;;;;;;;2.20;1.47;;;13.90;48.40;13.40;96190.00;;;;5011402;28;20224;-59
2023/06/01 05:38:25;;;;;;;0.70;0.70;;;13.90;48.40;13.40;96190.00;;;;5013847;28;20214;-59
2023/06/01 05:40:52;;;;;;;0.90;0.90;;;14.00;48.90;13.50;96190.00;;;;5012718;28;20304;-59
2023/06/01 05:43:20;;;;;;;0.97;0.97;;;14.10;48.00;13.60;96194.00;;;;5013503;28;20216;-58
2023/06/01 05:45:48;;;;;;;1.57;1.30;;;14.10;48.20;13.60;96188.00;;;;5012819;28;20198;-57
2023/06/01 05:48:15;;;;;;;2.93;1.63;;;14.20;47.70;13.80;96197.00;;;;5010105;28;20213;-58
2023/06/01 05:50:42;;;;;;;0.93;0.93;;;14.30;48.70;13.90;96189.00;;;;5012623;28;20198;-58
2023/06/01 05:53:10;;;;;;;2.30;1.67;;;14.30;49.10;13.80;96183.00;;;;5013273;28;20557;-59
2023/06/01 05:55:37;;;;;;;1.00;1.00;;;14.30;49.20;13.90;96190.00;;;;5012953;28;20216;-60
2023/06/01 05:58:05;;;;;;;0.90;0.90;;;14.40;49.40;14.10;96178.00;;;;5012189;28;20221;-59
2023/06/01 06:00:35;;;;;;;1.10;1.10;;;14.60;49.40;14.00;96187.00;;;;5012640;28;20201;-59
2023/06/01 06:03:03;;;;;;;0.77;0.77;;;14.50;49.50;14.10;96192.00;;;;5013595;28;20196;-59
2023/06/01 06:05:30;;;;;;;0.90;0.90;;;14.60;49.40;14.10;96188.00;;;;5012436;28;20267;-59
2023/06/01 06:07:58;;;;;;;1.60;1.50;;;14.70;49.40;14.10;96193.00;;;;5013392;28;20640;-60
2023/06/01 06:10:25;;;;;;;0.90;0.90;;;14.70;49.70;14.20;96198.00;;;;5027591;28;20575;-60
2023/06/01 06:12:52;;;;;;;1.00;1.00;;;14.80;49.40;14.50;96192.00;;;;5013174;28;20189;-58
2023/06/01 06:15:19;;;;;;;0.93;0.93;;;15.00;49.20;14.40;96204.00;;;;5012687;28;20547;-58
2023/06/01 06:17:47;;;;;;;1.87;1.77;;;15.00;49.50;14.70;96203.00;;;;5011426;28;20224;-58
2023/06/01 06:20:15;;;;;;;1.10;1.00;;;15.20;49.10;14.80;96194.00;;;;5012626;28;20202;-58
2023/06/01 06:22:42;;;;;;;1.60;1.50;;;15.30;48.70;14.90;96203.00;;;;5012856;28;20558;-59
2023/06/01 06:25:11;;;;;;;1.80;1.33;;;15.40;48.60;15.10;96190.00;;;;5012676;28;20208;-59
2023/06/01 06:27:38;;;;;;;1.37;1.10;;;15.60;48.20;15.20;96203.00;;;;5012394;28;20210;-59
2023/06/01 06:30:07;;;;;;;1.17;1.17;;;15.70;47.80;15.40;96193.00;;;;5012448;28;20202;-59
2023/06/01 06:32:35;;;;;;;0.70;0.70;;;15.80;47.70;15.50;96196.00;;;;5012407;28;20209;-59
2023/06/01 06:35:04;;;;;;;2.10;1.33;;;15.90;47.60;15.50;96191.00;;;;5012262;28;20214;-59
2023/06/01 06:37:31;;;;;;;9.73;1.53;;;16.00;47.20;15.70;96195.00;;;;5012237;28;20218;-59
2023/06/01 06:39:59;;;;;;;1.10;1.10;;;16.20;46.90;15.90;96192.00;;;;5012262;28;20280;-59
2023/06/01 06:42:26;;;;;;;0.73;0.73;;;16.30;46.20;16.20;96188.00;;;;5012294;28;20244;-59
2023/06/01 06:44:56;;;;;;;0.60;0.60;;;16.50;45.90;16.20;96201.00;;;;5010935;28;20209;-59
2023/06/01 06:47:24;;;;;;;1.40;1.30;;;16.60;45.30;16.30;96199.00;;;;5010864;28;20221;-60
2023/06/01 06:49:51;;;;;;;0.70;0.70;;;16.70;42.30;16.40;96192.00;;;;5012498;28;20186;-59
2023/06/01 06:52:20;;;;;;;0.97;0.97;;;16.80;41.00;16.60;96188.00;;;;5011723;28;20252;-60
2023/06/01 06:54:47;;;;;;;2.97;1.63;;;17.00;40.20;16.70;96194.00;;;;5012394;28;20185;-62
2023/06/01 06:57:14;;;;;;;1.07;1.07;;;17.10;39.80;16.70;96189.00;;;;5010502;28;20322;-59
2023/06/01 06:59:41;;;;;;;1.07;1.07;;;17.20;39.90;16.90;96192.00;;;;5011990;28;20276;-59
2023/06/01 07:02:08;;;;;;;0.83;0.83;;;17.30;39.60;17.00;96188.00;;;;5012023;28;20196;-59
2023/06/01 07:04:36;;;;;;;1.47;1.43;;;17.40;40.40;17.10;96189.00;;;;5011946;28;20716;-59
2023/06/01 07:07:04;;;;;;;0.80;0.80;;;17.50;40.60;17.10;96185.00;;;;5011631;28;20536;-59
2023/06/01 07:09:33;;;;;;;2.13;1.63;;;17.60;40.20;17.00;96190.00;;;;5011864;28;20201;-59
2023/06/01 07:12:00;;;;;;;1.10;1.10;;;17.50;39.40;17.30;96191.00;;;;5011728;28;20551;-59
2023/06/01 07:14:27;;;;;;;1.30;1.30;;;17.60;40.30;17.60;96194.00;;;;5011741;28;20200;-60
2023/06/01 07:16:54;;;;;;;0.70;0.70;;;17.90;39.60;17.80;96185.00;;;;5011588;28;20229;-59
2023/06/01 07:19:21;;;;;;;1.63;1.53;;;18.20;39.40;17.80;96189.00;;;;5011223;28;20304;-60
2023/06/01 07:21:48;;;;;;;1.17;1.17;;;18.20;39.40;17.80;96190.00;;;;5011680;28;20219;-59
2023/06/01 07:24:19;;;;;;;1.00;1.00;;;18.20;39.80;17.80;96194.00;;;;5011541;28;20276;-59
2023/06/01 07:26:51;;;;;;;1.27;1.20;;;18.20;38.70;18.00;96195.00;;;;5011970;28;20197;-59
2023/06/01 07:29:18;;;;;;;0.80;0.80;;;18.40;39.00;18.10;96189.00;;;;5011342;28;20240;-59
2023/06/01 07:31:45;;;;;;;5.13;1.37;;;18.50;38.40;18.30;96187.00;;;;5011608;28;20244;-59
2023/06/01 07:34:12;;;;;;;0.57;0.57;;;18.70;38.00;18.50;96192.00;;;;5011372;28;20280;-59
2023/06/01 07:36:41;;;;;;;0.73;0.73;;;18.80;37.50;18.50;96187.00;;;;5011812;28;20217;-59
2023/06/01 07:39:09;;;;;;;0.67;0.67;;;19.00;37.60;18.90;96178.00;;;;5007019;28;20303;-59
2023/06/01 07:41:36;;;;;;;2.20;1.33;;;19.20;36.60;19.10;96190.00;;;;5011859;28;20194;-59
2023/06/01 07:44:05;;;;;;;1.63;1.53;;;19.40;35.90;19.40;96184.00;;;;5011063;28;20197;-59
2023/06/01 07:46:32;;;;;;;0.87;0.87;;;19.60;37.20;19.60;96187.00;;;;5010401;28;20684;-59
2023/06/01 07:48:59;;;;;;;1.07;0.97;;;19.80;35.40;19.50;96187.00;;;;5010179;28;20213;-59
2023/06/01 07:51:26;;;;;;;2.67;1.17;;;19.90;34.50;19.50;96189.00;;;;5011329;28;20687;-59
2023/06/01 07:53:57;;;;;;;1.03;1.03;;;19.90;33.90;19.50;96183.00;;;;5010933;28;20198;-59
2023/06/01 07:56:26;;;;;;;1.17;1.10;;;19.90;34.50;19.60;96187.00;;;;5011394;28;20309;-59
2023/06/01 07:58:53;;;;;;;1.30;1.20;;;20.00;33.40;19.80;96187.00;;;;5010972;28;20315;-59
2023/06/01 08:01:22;;;;;;;1.10;1.10;;;20.10;34.30;19.80;96195.00;;;;5010351;28;20213;-59
2023/06/01 08:03:50;;;;;;;0.93;0.93;;;20.10;33.10;19.90;96179.00;;;;5010610;28;20209;-59
2023/06/01 08:06:17;;;;;;;0.60;0.60;;;20.30;34.00;20.20;96189.00;;;;5014298;28;20197;-59
2023/06/01 08:08:45;;;;;;;0.60;0.60;;;20.50;33.10;20.20;96194.00;;;;5014987;28;20300;-59
2023/06/01 08:11:13;;;;;;;0.90;0.90;;;20.60;32.50;20.40;96185.00;;;;5013212;28;20201;-59
2023/06/01 08:13:41;;;;;;;0.73;0.73;;;20.70;32.50;20.50;96192.00;;;;5014986;28;20189;-59
2023/06/01 08:16:08;;;;;;;2.73;2.53;;;20.80;32.40;20.60;96184.00;;;;5014262;28;20696;-58
2023/06/01 08:18:36;;;;;;;1.57;1.47;;;20.90;32.50;20.70;96185.00;;;;5014925;28;20235;-57
2023/06/01 08:21:04;;;;;;;0.52;0.52;;;21.00;32.00;20.70;96186.00;;;;5014670;28;20193;-58
2023/06/01 08:23:32;;;;;;;1.08;1.08;;;21.10;32.00;20.70;96186.00;;;;5014728;28;20215;-58
2023/06/01 08:25:59;;;;;;;0.82;0.82;;;21.10;32.50;21.00;96183.00;;;;5014676;28;20306;-58
2023/06/01 08:28:26;;;;;;;1.08;1.08;;;21.40;32.60;21.00;96186.00;;;;5014563;28;20320;-58
2023/06/01 08:30:53;;;;;;;0.70;0.70;;;21.40;32.30;21.20;96179.00;;;;5014532;28;20192;-58
2023/06/01 08:33:20;;;;;;;1.52;1.42;;;21.50;32.30;21.30;96173.00;;;;5014068;28;20190;-58
2023/06/01 08:35:49;;;;;;;4.78;1.60;;;21.60;32.20;21.40;96173.00;;;;5014398;28;20621;-58
2023/06/01 08:38:16;;;;;;;1.23;1.23;;;21.80;31.80;21.50;96180.00;;;;5014117;28;20217;-59
2023/06/01 08:40:43;;;;;;;0.63;0.63;;;21.80;31.60;21.50;96171.00;;;;5013865;28;20272;-59
2023/06/01 08:43:21;;;;;;;0.98;0.98;;;21.90;31.10;21.60;96176.00;;;;5014557;28;20196;-59
2023/06/01 08:45:48;;;;;;;1.27;1.17;;;21.90;32.20;21.60;96174.00;;;;5014016;28;20193;-59
2023/06/01 08:48:19;;;;;;;1.55;1.45;;;22.10;32.00;21.70;96175.00;;;;5014650;28;20221;-59
2023/06/01 08:50:53;;;;;;;0.77;0.77;;;22.10;31.70;21.80;96177.00;;;;5014242;28;20211;-59
2023/06/01 08:53:22;;;;;;;1.00;1.00;;;22.20;31.70;21.80;96172.00;;;;5014567;28;20192;-59
2023/06/01 08:55:52;;;;;;;1.08;1.08;;;22.20;32.70;21.80;96175.00;;;;5025765;28;20202;-60
2023/06/01 08:58:19;;;;;;;1.67;1.58;;;22.20;31.80;21.90;96174.00;;;;5014640;28;20232;-59
2023/06/01 09:00:50;;;;;;;1.20;1.10;;;22.30;32.80;22.10;96177.00;;;;5013863;28;20193;-59
2023/06/01 09:03:17;;;;;;;1.25;1.13;;;22.40;32.60;22.20;96178.00;;;;5010170;28;20193;-60
2023/06/01 09:05:44;;;;;;;1.35;1.25;;;22.50;31.90;22.10;96178.00;;;;5014395;28;20200;-60
2023/06/01 09:08:13;;;;;;;0.93;0.93;;;22.50;31.50;22.20;96173.00;;;;5012892;28;20289;-58
2023/06/01 09:10:40;;;;;;;3.40;1.67;;;22.60;31.50;22.30;96180.00;;;;5014150;28;20197;-59
2023/06/01 09:13:08;;;;;;;1.23;1.13;;;22.70;31.50;22.40;96180.00;;;;5012937;28;20196;-58
2023/06/01 09:15:35;;;;;;;0.88;0.88;;;22.70;31.50;22.40;96180.00;;;;5013689;28;20544;-59
2023/06/01 09:18:08;;;;;;;1.02;1.02;;;22.80;30.90;22.50;96177.00;;;;5012740;28;20594;-59
2023/06/01 09:20:37;;;;;;;0.77;0.77;;;22.90;30.60;22.70;96182.00;;;;5014145;28;20321;-59
2023/06/01 09:23:04;;;;;;;0.90;0.90;;;23.00;31.80;22.70;96172.00;;;;5013270;28;20201;-59
2023/06/01 09:25:36;;;;;;;0.77;0.77;;;23.10;31.40;22.90;96177.00;;;;5013873;28;20194;-59
2023/06/01 09:28:04;;;;;;;1.38;1.27;;;23.20;30.80;22.80;96178.00;;;;5013404;28;20580;-57
2023/06/01 09:30:44;;;;;;;0.60;0.60;;;23.20;30.10;23.20;96175.00;;;;5013887;28;20728;-59
2023/06/01 09:33:14;;;;;;;1.27;1.08;;;23.40;29.30;23.00;96178.00;;;;5013147;28;20181;-58
2023/06/01 09:35:44;;;;;;;1.58;1.48;;;23.40;28.70;23.10;96176.00;;;;5013869;28;20205;-58
2023/06/01 09:38:13;;;;;;;4.45;1.67;;;23.40;29.40;23.30;96177.00;;;;5011852;28;20220;-58
2023/06/01 09:40:55;;;;;;;1.25;1.20;;;;;23.30;96178.00;;;;5013466;28;20203;-58
2023/06/01 09:43:23;;;;;;;1.55;1.45;;;;;23.70;96174.00;;;;5009860;28;20197;-58
2023/06/01 09:46:08;;;;;;;1.38;1.27;;;24.00;28.40;23.70;96165.00;;;;5012911;28;20205;-58
2023/06/01 09:48:36;;;;;;;1.23;1.23;;;24.10;28.00;23.70;96165.00;;;;5012465;28;20224;-59
2023/06/01 09:51:04;;;;;;;5.85;1.40;;;23.90;27.50;24.00;96160.00;;;;5013141;28;20200;-58
2023/06/01 09:53:41;;;;;;;1.02;1.02;;;24.20;28.80;23.80;96163.00;;;;5012617;28;20194;-59
2023/06/01 09:56:10;;;;;;;0.70;0.70;;;24.10;27.10;23.70;96159.00;;;;5009564;28;20189;-58
2023/06/01 09:58:40;;;;;;;0.75;0.75;;;24.10;28.50;23.80;96154.00;;;;5012391;28;20572;-58
2023/06/01 10:01:08;;;;;;;1.80;1.70;;;24.20;27.60;24.10;96160.00;;;;5013352;28;20185;-58
2023/06/01 10:03:41;;;;;;;0.63;0.63;;;24.30;26.80;24.10;96159.00;;;;5012611;28;20423;-58
2023/06/01 10:06:11;;;;;;;1.33;1.25;;;24.50;26.10;23.90;96160.00;;;;5013298;28;20181;-58
2023/06/01 10:08:39;;;;;;;1.60;1.50;;;24.40;26.90;24.00;96151.00;;;;5010747;28;20213;-58
2023/06/01 10:11:10;;;;;;;1.40;1.30;;;24.30;25.10;24.10;96149.00;;;;5011752;28;20213;-58
2023/06/01 10:13:37;;;;;;;1.83;1.35;;;24.40;25.40;24.10;96154.00;;;;5011274;28;20268;-58
2023/06/01 10:16:06;;;;;;;1.17;1.15;;;24.40;27.20;24.00;96145.00;;;;5013140;28;20198;-58
2023/06/01 10:18:33;;;;;;;0.75;0.75;;;24.40;25.40;24.30;96145.00;;;;5012035;28;20225;-58
2023/06/01 10:21:02;;;;;;;2.05;1.55;;;24.60;26.70;24.50;96145.00;;;;5012922;28;20204;-58
2023/06/01 10:23:29;;;;;;;1.50;1.40;;;24.90;25.60;24.40;96143.00;;;;5012647;28;21194;-58
2023/06/01 10:25:58;;;;;;;0.88;0.88;;;24.80;25.40;24.30;96147.00;;;;5013174;28;20205;-58
2023/06/01 10:28:29;;;;;;;0.98;0.98;;;24.70;24.10;24.30;96145.00;;;;5011809;28;20300;-58
2023/06/01 10:31:35;;;;;;;1.00;1.00;;;24.70;23.10;24.30;96145.00;;;;5013419;28;20194;-58
2023/06/01 10:34:02;;;;;;;1.58;1.48;;;24.80;24.50;24.60;96146.00;;;;5011982;28;20193;-58
2023/06/01 10:37:15;;;;;;;1.35;1.27;;;24.90;23.40;24.60;96135.00;;;;5012755;28;20668;-58
2023/06/01 10:39:43;;;;;;;1.35;1.25;;;24.90;22.90;25.00;96127.00;;;;5012355;28;20189;-58
2023/06/01 10:42:50;;;;;;;0.82;0.82;;;25.30;23.10;24.90;96139.00;;;;5012322;28;20193;-58
2023/06/01 10:45:48;;;;;;;1.55;1.40;;;25.10;22.70;25.00;96137.00;;;;5012184;28;20243;-58
2023/06/01 10:48:15;;;;;;;1.10;1.10;;;25.20;21.10;25.00;96129.00;;;;4951694;29;20226;-59
2023/06/01 10:50:44;;;;;;;0.82;0.82;;;25.30;22.40;24.90;96134.00;;;;4998570;28;20216;-58
2023/06/01 10:53:31;;;;;;;6.88;1.50;;;25.30;20.90;24.90;96137.00;;;;5011926;28;20197;-58
2023/06/01 10:56:23;;;;;;;1.73;1.63;;;25.20;22.10;25.00;96132.00;;;;5012090;28;20185;-58
2023/06/01 10:59:12;;;;;;;1.25;1.20;;;25.30;21.60;25.20;96128.00;;;;5011376;28;20228;-58
2023/06/01 11:01:42;;;;;;;1.25;1.23;;;25.40;19.30;25.30;96133.00;;;;5012336;28;20184;-58
2023/06/01 11:04:10;;;;;;;1.40;1.30;;;;;25.40;96125.00;;;;5011939;28;20189;-58
2023/06/01 11:06:40;;;;;;;1.67;1.58;;;;;25.20;96125.00;;;;5012013;28;20691;-58
2023/06/01 11:09:08;;;;;;;0.95;0.95;;;;;25.50;96132.00;;;;5011672;28;20273;-58
2023/06/01 11:12:00;;;;;;;2.35;1.08;;;;;25.70;96117.00;;;;5011900;28;20192;-58
2023/06/01 11:14:30;;;;;;;16.35;1.35;;;;;25.80;96124.00;;;;5011699;28;20267;-58